sensor_id;sensor_type;location;lat;lon;timestamp;pressure;altitude;pressure_sealevel;temperature;humidity
62548;BME280;48602;45.192;5.722;2023-03-05T00:00:49;99359.34;;;6.62;60.48
62548;BME280;48602;45.192;5.722;2023-03-05T00:03:15;99360.31;;;6.58;60.29
62548;BME280;48602;45.192;5.722;2023-03-05T00:05:40;99359.47;;;6.56;60.64
62548;BME280;48602;45.192;5.722;2023-03-05T00:08:06;99363.88;;;6.54;60.83
62548;BME280;48602;45.192;5.722;2023-03-05T00:10:31;99360.47;;;6.50;61.04
62548;BME280;48602;45.192;5.722;2023-03-05T00:12:56;99364.00;;;6.49;61.37
62548;BME280;48602;45.192;5.722;2023-03-05T00:15:22;99358.00;;;6.43;61.29
62548;BME280;48602;45.192;5.722;2023-03-05T00:17:47;99366.78;;;6.40;61.81
62548;BME280;48602;45.192;5.722;2023-03-05T00:20:13;99363.41;;;6.35;62.04
62548;BME280;48602;45.192;5.722;2023-03-05T00:22:38;99358.25;;;6.30;61.79
62548;BME280;48602;45.192;5.722;2023-03-05T00:25:04;99353.94;;;6.26;61.95
62548;BME280;48602;45.192;5.722;2023-03-05T00:27:29;99367.09;;;6.23;61.73
62548;BME280;48602;45.192;5.722;2023-03-05T00:29:55;99369.84;;;6.17;61.57
62548;BME280;48602;45.192;5.722;2023-03-05T00:32:20;99366.41;;;6.14;61.75
62548;BME280;48602;45.192;5.722;2023-03-05T00:34:48;99370.81;;;6.12;62.04
62548;BME280;48602;45.192;5.722;2023-03-05T00:37:15;99374.38;;;6.06;62.22
62548;BME280;48602;45.192;5.722;2023-03-05T00:39:40;99369.25;;;6.02;62.67
62548;BME280;48602;45.192;5.722;2023-03-05T00:42:06;99377.16;;;5.99;63.32
62548;BME280;48602;45.192;5.722;2023-03-05T00:44:32;99377.28;;;5.91;63.23
62548;BME280;48602;45.192;5.722;2023-03-05T00:46:57;99377.34;;;5.86;63.17
62548;BME280;48602;45.192;5.722;2023-03-05T00:49:22;99369.59;;;5.79;63.15
62548;BME280;48602;45.192;5.722;2023-03-05T00:51:54;99373.16;;;5.75;63.06
62548;BME280;48602;45.192;5.722;2023-03-05T00:54:19;99367.09;;;5.73;63.72
62548;BME280;48602;45.192;5.722;2023-03-05T00:56:45;99374.94;;;5.71;63.67
62548;BME280;48602;45.192;5.722;2023-03-05T00:59:11;99380.19;;;5.71;63.75
62548;BME280;48602;45.192;5.722;2023-03-05T01:01:36;99380.25;;;5.68;63.75
62548;BME280;48602;45.192;5.722;2023-03-05T01:04:02;99383.75;;;5.67;63.85
62548;BME280;48602;45.192;5.722;2023-03-05T01:06:28;99378.56;;;5.64;64.04
62548;BME280;48602;45.192;5.722;2023-03-05T01:08:53;99379.44;;;5.65;64.06
62548;BME280;48602;45.192;5.722;2023-03-05T01:11:20;99370.72;;;5.64;63.81
62548;BME280;48602;45.192;5.722;2023-03-05T01:13:46;99367.22;;;5.67;64.04
62548;BME280;48602;45.192;5.722;2023-03-05T01:16:11;99373.31;;;5.67;63.55
62548;BME280;48602;45.192;5.722;2023-03-05T01:18:38;99371.56;;;5.66;64.29
62548;BME280;48602;45.192;5.722;2023-03-05T01:21:03;99375.06;;;5.67;63.82
62548;BME280;48602;45.192;5.722;2023-03-05T01:23:30;99372.47;;;5.65;64.38
62548;BME280;48602;45.192;5.722;2023-03-05T01:25:59;99370.75;;;5.63;63.55
62548;BME280;48602;45.192;5.722;2023-03-05T01:28:25;99362.06;;;5.60;63.39
62548;BME280;48602;45.192;5.722;2023-03-05T01:30:50;99365.56;;;5.59;63.53
62548;BME280;48602;45.192;5.722;2023-03-05T01:33:16;99362.94;;;5.59;63.60
62548;BME280;48602;45.192;5.722;2023-03-05T01:35:45;99362.09;;;5.57;63.90
62548;BME280;48602;45.192;5.722;2023-03-05T01:38:10;99360.38;;;5.56;63.81
62548;BME280;48602;45.192;5.722;2023-03-05T01:40:35;99361.25;;;5.57;64.05
62548;BME280;48602;45.192;5.722;2023-03-05T01:45:36;99356.03;;;5.55;64.75
62548;BME280;48602;45.192;5.722;2023-03-05T01:48:02;99347.41;;;5.52;64.60
62548;BME280;48602;45.192;5.722;2023-03-05T01:50:28;99351.84;;;5.47;64.50
62548;BME280;48602;45.192;5.722;2023-03-05T01:53:02;99349.25;;;5.44;63.95
62548;BME280;48602;45.192;5.722;2023-03-05T01:55:29;99342.31;;;5.41;64.25
62548;BME280;48602;45.192;5.722;2023-03-05T01:58:02;99333.66;;;5.38;64.83
62548;BME280;48602;45.192;5.722;2023-03-05T02:00:36;99337.22;;;5.35;64.84
62548;BME280;48602;45.192;5.722;2023-03-05T02:03:06;99338.97;;;5.35;65.18
62548;BME280;48602;45.192;5.722;2023-03-05T02:05:42;99332.91;;;5.31;64.74
62548;BME280;48602;45.192;5.722;2023-03-05T02:08:20;99338.19;;;5.26;65.18
62548;BME280;48602;45.192;5.722;2023-03-05T02:10:51;99344.34;;;5.22;64.51
62548;BME280;48602;45.192;5.722;2023-03-05T02:13:20;99336.59;;;5.18;65.31
62548;BME280;48602;45.192;5.722;2023-03-05T02:15:47;99328.84;;;5.12;64.75
62548;BME280;48602;45.192;5.722;2023-03-05T02:18:14;99327.19;;;5.06;64.63
62548;BME280;48602;45.192;5.722;2023-03-05T02:20:47;99344.63;;;5.03;64.40
62548;BME280;48602;45.192;5.722;2023-03-05T02:23:13;99339.53;;;4.97;64.35
62548;BME280;48602;45.192;5.722;2023-03-05T02:25:39;99331.75;;;4.92;65.32
62548;BME280;48602;45.192;5.722;2023-03-05T02:28:15;99323.06;;;4.88;65.04
62548;BME280;48602;45.192;5.722;2023-03-05T02:30:42;99331.00;;;4.84;65.82
62548;BME280;48602;45.192;5.722;2023-03-05T02:33:08;99328.44;;;4.79;65.58
62548;BME280;48602;45.192;5.722;2023-03-05T02:35:34;99337.19;;;4.77;65.29
62548;BME280;48602;45.192;5.722;2023-03-05T02:37:59;99327.63;;;4.74;64.78
62548;BME280;48602;45.192;5.722;2023-03-05T02:40:25;99329.41;;;4.72;65.00
62548;BME280;48602;45.192;5.722;2023-03-05T02:42:50;99328.53;;;4.72;64.70
62548;BME280;48602;45.192;5.722;2023-03-05T02:45:16;99323.31;;;4.70;64.51
62548;BME280;48602;45.192;5.722;2023-03-05T02:47:42;99315.56;;;4.67;64.04
62548;BME280;48602;45.192;5.722;2023-03-05T02:50:09;99319.94;;;4.65;64.69
62548;BME280;48602;45.192;5.722;2023-03-05T02:52:35;99318.25;;;4.61;64.43
62548;BME280;48602;45.192;5.722;2023-03-05T02:55:01;99320.88;;;4.58;64.06
62548;BME280;48602;45.192;5.722;2023-03-05T02:57:26;99325.25;;;4.56;64.19
62548;BME280;48602;45.192;5.722;2023-03-05T02:59:52;99318.31;;;4.53;64.08
62548;BME280;48602;45.192;5.722;2023-03-05T03:02:17;99314.03;;;4.51;64.51
62548;BME280;48602;45.192;5.722;2023-03-05T03:04:44;99315.78;;;4.50;64.47
62548;BME280;48602;45.192;5.722;2023-03-05T03:07:10;99314.91;;;4.50;64.53
62548;BME280;48602;45.192;5.722;2023-03-05T03:09:37;99316.66;;;4.49;64.74
62548;BME280;48602;45.192;5.722;2023-03-05T03:12:05;99307.97;;;4.49;64.73
62548;BME280;48602;45.192;5.722;2023-03-05T03:14:44;99305.38;;;4.47;64.58
62548;BME280;48602;45.192;5.722;2023-03-05T03:17:13;99305.38;;;4.46;64.19
62548;BME280;48602;45.192;5.722;2023-03-05T03:19:40;99307.13;;;4.45;64.00
62548;BME280;48602;45.192;5.722;2023-03-05T03:22:06;99305.41;;;4.44;63.82
62548;BME280;48602;45.192;5.722;2023-03-05T03:24:33;99306.31;;;4.40;64.13
62548;BME280;48602;45.192;5.722;2023-03-05T03:26:59;99310.69;;;4.38;64.27
62548;BME280;48602;45.192;5.722;2023-03-05T03:29:25;99296.78;;;4.36;63.90
62548;BME280;48602;45.192;5.722;2023-03-05T03:31:51;99302.91;;;4.35;64.18
62548;BME280;48602;45.192;5.722;2023-03-05T03:34:16;99318.59;;;4.34;64.08
62548;BME280;48602;45.192;5.722;2023-03-05T03:36:44;99307.31;;;4.30;64.31
62548;BME280;48602;45.192;5.722;2023-03-05T03:39:10;99316.94;;;4.25;64.35
62548;BME280;48602;45.192;5.722;2023-03-05T03:41:40;99317.84;;;4.21;64.77
62548;BME280;48602;45.192;5.722;2023-03-05T03:44:05;99317.91;;;4.18;64.87
62548;BME280;48602;45.192;5.722;2023-03-05T03:46:33;99318.78;;;4.17;64.62
62548;BME280;48602;45.192;5.722;2023-03-05T03:48:58;99320.56;;;4.13;64.75
62548;BME280;48602;45.192;5.722;2023-03-05T03:51:24;99319.69;;;4.13;64.68
62548;BME280;48602;45.192;5.722;2023-03-05T03:53:49;99309.28;;;4.10;64.93
62548;BME280;48602;45.192;5.722;2023-03-05T03:56:15;99315.41;;;4.06;65.06
62548;BME280;48602;45.192;5.722;2023-03-05T03:58:40;99307.63;;;4.03;65.53
62548;BME280;48602;45.192;5.722;2023-03-05T04:01:05;99305.94;;;4.00;65.41
62548;BME280;48602;45.192;5.722;2023-03-05T04:03:31;99314.63;;;3.99;65.12
62548;BME280;48602;45.192;5.722;2023-03-05T04:05:56;99311.16;;;3.99;65.51
62548;BME280;48602;45.192;5.722;2023-03-05T04:08:22;99312.03;;;3.98;65.44
62548;BME280;48602;45.192;5.722;2023-03-05T04:10:47;99308.59;;;3.96;65.42
62548;BME280;48602;45.192;5.722;2023-03-05T04:13:12;99312.09;;;3.93;65.00
62548;BME280;48602;45.192;5.722;2023-03-05T04:15:38;99317.34;;;3.87;65.59
62548;BME280;48602;45.192;5.722;2023-03-05T04:18:03;99312.19;;;3.84;65.34
62548;BME280;48602;45.192;5.722;2023-03-05T04:20:29;99306.97;;;3.82;65.68
62548;BME280;48602;45.192;5.722;2023-03-05T04:23:00;99302.63;;;3.83;65.69
62548;BME280;48602;45.192;5.722;2023-03-05T04:25:28;99305.25;;;3.81;65.43
62548;BME280;48602;45.192;5.722;2023-03-05T04:27:53;99300.00;;;3.84;65.75
62548;BME280;48602;45.192;5.722;2023-03-05T04:30:19;99297.41;;;3.83;66.06
62548;BME280;48602;45.192;5.722;2023-03-05T04:32:44;99295.69;;;3.82;65.67
62548;BME280;48602;45.192;5.722;2023-03-05T04:35:10;99294.81;;;3.81;65.52
62548;BME280;48602;45.192;5.722;2023-03-05T04:37:35;99299.19;;;3.81;65.70
62548;BME280;48602;45.192;5.722;2023-03-05T04:40:01;99294.84;;;3.80;66.07
62548;BME280;48602;45.192;5.722;2023-03-05T04:42:27;99289.63;;;3.80;65.75
62548;BME280;48602;45.192;5.722;2023-03-05T04:44:52;99288.78;;;3.78;66.19
62548;BME280;48602;45.192;5.722;2023-03-05T04:47:18;99293.13;;;3.76;66.07
62548;BME280;48602;45.192;5.722;2023-03-05T04:50:02;99290.53;;;3.74;66.44
62548;BME280;48602;45.192;5.722;2023-03-05T04:52:29;99289.69;;;3.74;65.54
62548;BME280;48602;45.192;5.722;2023-03-05T04:54:54;99290.56;;;3.73;66.33
62548;BME280;48602;45.192;5.722;2023-03-05T04:57:20;99294.00;;;3.76;66.39
62548;BME280;48602;45.192;5.722;2023-03-05T04:59:45;99282.69;;;3.77;66.20
62548;BME280;48602;45.192;5.722;2023-03-05T05:02:10;99280.94;;;3.78;65.56
62548;BME280;48602;45.192;5.722;2023-03-05T05:04:36;99286.16;;;3.79;66.09
62548;BME280;48602;45.192;5.722;2023-03-05T05:07:02;99289.59;;;3.83;66.16
62548;BME280;48602;45.192;5.722;2023-03-05T05:09:28;99283.50;;;3.84;65.92
62548;BME280;48602;45.192;5.722;2023-03-05T05:11:54;99291.28;;;3.85;65.75
62548;BME280;48602;45.192;5.722;2023-03-05T05:14:19;99280.84;;;3.85;65.60
62548;BME280;48602;45.192;5.722;2023-03-05T05:16:45;99292.22;;;3.81;66.06
62548;BME280;48602;45.192;5.722;2023-03-05T05:19:10;99281.81;;;3.80;66.43
62548;BME280;48602;45.192;5.722;2023-03-05T05:21:36;99286.16;;;3.78;66.42
62548;BME280;48602;45.192;5.722;2023-03-05T05:24:02;99286.19;;;3.76;66.47
62548;BME280;48602;45.192;5.722;2023-03-05T05:26:27;99294.91;;;3.72;65.58
62548;BME280;48602;45.192;5.722;2023-03-05T05:28:53;99291.50;;;3.66;65.75
62548;BME280;48602;45.192;5.722;2023-03-05T05:31:18;99291.53;;;3.63;66.50
62548;BME280;48602;45.192;5.722;2023-03-05T05:33:45;99295.91;;;3.58;65.97
62548;BME280;48602;45.192;5.722;2023-03-05T05:36:14;99292.47;;;3.54;66.82
62548;BME280;48602;45.192;5.722;2023-03-05T05:38:40;99281.22;;;3.50;67.55
62548;BME280;48602;45.192;5.722;2023-03-05T05:41:11;99286.44;;;3.49;67.19
62548;BME280;48602;45.192;5.722;2023-03-05T05:43:37;99286.47;;;3.47;67.63
62548;BME280;48602;45.192;5.722;2023-03-05T05:46:05;99291.69;;;3.47;67.30
62548;BME280;48602;45.192;5.722;2023-03-05T05:48:33;99292.56;;;3.43;66.58
62548;BME280;48602;45.192;5.722;2023-03-05T05:50:59;99290.84;;;3.42;67.20
62548;BME280;48602;45.192;5.722;2023-03-05T05:53:24;99293.44;;;3.45;67.45
62548;BME280;48602;45.192;5.722;2023-03-05T05:55:50;99295.16;;;3.46;67.01
62548;BME280;48602;45.192;5.722;2023-03-05T05:58:16;99289.09;;;3.46;67.02
62548;BME280;48602;45.192;5.722;2023-03-05T06:00:41;99295.16;;;3.45;67.15
62548;BME280;48602;45.192;5.722;2023-03-05T06:03:07;99289.97;;;3.45;67.34
62548;BME280;48602;45.192;5.722;2023-03-05T06:05:33;99286.50;;;3.41;67.06
62548;BME280;48602;45.192;5.722;2023-03-05T06:07:58;99287.41;;;3.37;67.33
62548;BME280;48602;45.192;5.722;2023-03-05T06:10:24;99298.75;;;3.33;67.71
62548;BME280;48602;45.192;5.722;2023-03-05T06:12:49;99296.16;;;3.32;67.63
62548;BME280;48602;45.192;5.722;2023-03-05T06:15:15;99301.38;;;3.32;67.94
62548;BME280;48602;45.192;5.722;2023-03-05T06:17:40;99290.94;;;3.32;68.13
62548;BME280;48602;45.192;5.722;2023-03-05T06:20:06;99291.81;;;3.32;68.04
62548;BME280;48602;45.192;5.722;2023-03-05T06:22:35;99298.75;;;3.32;68.03
62548;BME280;48602;45.192;5.722;2023-03-05T06:25:01;99297.03;;;3.31;68.40
62548;BME280;48602;45.192;5.722;2023-03-05T06:27:26;99302.25;;;3.31;67.83
62548;BME280;48602;45.192;5.722;2023-03-05T06:29:53;99308.31;;;3.33;68.07
62548;BME280;48602;45.192;5.722;2023-03-05T06:32:22;99310.03;;;3.34;68.13
62548;BME280;48602;45.192;5.722;2023-03-05T06:34:51;99313.50;;;3.34;68.41
62548;BME280;48602;45.192;5.722;2023-03-05T06:37:16;99311.78;;;3.33;68.01
62548;BME280;48602;45.192;5.722;2023-03-05T06:39:42;99304.84;;;3.31;67.73
62548;BME280;48602;45.192;5.722;2023-03-05T06:42:08;99305.72;;;3.30;68.23
62548;BME280;48602;45.192;5.722;2023-03-05T06:44:37;99306.56;;;3.33;68.01
62548;BME280;48602;45.192;5.722;2023-03-05T06:47:04;99314.34;;;3.36;68.23
62548;BME280;48602;45.192;5.722;2023-03-05T06:49:36;99312.59;;;3.37;68.16
62548;BME280;48602;45.192;5.722;2023-03-05T06:52:05;99315.19;;;3.37;68.37
62548;BME280;48602;45.192;5.722;2023-03-05T06:54:31;99323.00;;;3.38;68.66
62548;BME280;48602;45.192;5.722;2023-03-05T06:56:56;99313.44;;;3.39;68.35
62548;BME280;48602;45.192;5.722;2023-03-05T06:59:22;99312.59;;;3.37;68.14
62548;BME280;48602;45.192;5.722;2023-03-05T07:01:48;99311.72;;;3.38;68.44
62548;BME280;48602;45.192;5.722;2023-03-05T07:04:13;99309.97;;;3.38;68.09
62548;BME280;48602;45.192;5.722;2023-03-05T07:06:41;99305.66;;;3.37;68.24
62548;BME280;48602;45.192;5.722;2023-03-05T07:09:07;99305.69;;;3.34;68.08
62548;BME280;48602;45.192;5.722;2023-03-05T07:11:33;99301.34;;;3.33;67.85
62548;BME280;48602;45.192;5.722;2023-03-05T07:13:58;99299.63;;;3.34;68.49
62548;BME280;48602;45.192;5.722;2023-03-05T07:16:26;99300.50;;;3.33;67.76
62548;BME280;48602;45.192;5.722;2023-03-05T07:18:54;99298.75;;;3.32;67.99
62548;BME280;48602;45.192;5.722;2023-03-05T07:21:26;99297.88;;;3.33;67.85
62548;BME280;48602;45.192;5.722;2023-03-05T07:23:53;99294.41;;;3.34;67.81
62548;BME280;48602;45.192;5.722;2023-03-05T07:26:19;99290.00;;;3.37;67.89
62548;BME280;48602;45.192;5.722;2023-03-05T07:28:48;99294.31;;;3.43;67.73
62548;BME280;48602;45.192;5.722;2023-03-05T07:31:16;99288.22;;;3.47;67.55
62548;BME280;48602;45.192;5.722;2023-03-05T07:33:44;99283.84;;;3.49;67.82
62548;BME280;48602;45.192;5.722;2023-03-05T07:36:10;99288.13;;;3.55;68.00
62548;BME280;48602;45.192;5.722;2023-03-05T07:38:36;99286.34;;;3.60;67.68
62548;BME280;48602;45.192;5.722;2023-03-05T07:41:10;99287.16;;;3.66;67.33
62548;BME280;48602;45.192;5.722;2023-03-05T07:43:36;99287.94;;;3.74;67.51
62548;BME280;48602;45.192;5.722;2023-03-05T07:46:09;99285.25;;;3.82;67.35
62548;BME280;48602;45.192;5.722;2023-03-05T07:48:36;99286.03;;;3.89;67.07
62548;BME280;48602;45.192;5.722;2023-03-05T07:51:10;99290.31;;;3.97;66.82
62548;BME280;48602;45.192;5.722;2023-03-05T07:53:36;99298.88;;;4.07;66.60
62548;BME280;48602;45.192;5.722;2023-03-05T07:56:09;99290.97;;;4.16;66.39
62548;BME280;48602;45.192;5.722;2023-03-05T07:58:36;99296.06;;;4.25;66.50
62548;BME280;48602;45.192;5.722;2023-03-05T08:01:02;99292.53;;;4.31;66.02
62548;BME280;48602;45.192;5.722;2023-03-05T08:03:28;99292.50;;;4.32;65.94
62548;BME280;48602;45.192;5.722;2023-03-05T08:05:57;99289.03;;;4.33;65.85
62548;BME280;48602;45.192;5.722;2023-03-05T08:08:27;99282.00;;;4.37;65.68
62548;BME280;48602;45.192;5.722;2023-03-05T08:10:54;99281.97;;;4.40;65.83
62548;BME280;48602;45.192;5.722;2023-03-05T08:13:22;99278.41;;;4.45;65.67
62548;BME280;48602;45.192;5.722;2023-03-05T08:15:55;99274.78;;;4.57;65.69
62548;BME280;48602;45.192;5.722;2023-03-05T08:18:34;99277.19;;;4.69;65.61
62548;BME280;48602;45.192;5.722;2023-03-05T08:20:59;99268.34;;;4.81;65.17
62548;BME280;48602;45.192;5.722;2023-03-05T08:23:25;99275.97;;;4.95;64.84
62548;BME280;48602;45.192;5.722;2023-03-05T08:25:52;99266.22;;;5.06;64.84
62548;BME280;48602;45.192;5.722;2023-03-05T08:28:17;99258.22;;;5.18;64.61
62548;BME280;48602;45.192;5.722;2023-03-05T08:30:47;99262.38;;;5.28;64.32
62548;BME280;48602;45.192;5.722;2023-03-05T08:33:16;99255.28;;;5.36;63.75
62548;BME280;48602;45.192;5.722;2023-03-05T08:35:45;99248.13;;;5.47;64.12
62548;BME280;48602;45.192;5.722;2023-03-05T08:38:10;99250.47;;;5.61;63.71
62548;BME280;48602;45.192;5.722;2023-03-05T08:40:36;99248.41;;;5.78;63.74
62548;BME280;48602;45.192;5.722;2023-03-05T08:43:01;99242.06;;;5.93;63.43
62548;BME280;48602;45.192;5.722;2023-03-05T08:45:29;99233.03;;;6.08;63.27
62548;BME280;48602;45.192;5.722;2023-03-05T08:47:54;99223.16;;;6.20;63.11
62548;BME280;48602;45.192;5.722;2023-03-05T08:50:21;99226.28;;;6.38;62.97
62548;BME280;48602;45.192;5.722;2023-03-05T08:52:48;99226.91;;;6.50;63.17
62548;BME280;48602;45.192;5.722;2023-03-05T08:55:13;99224.00;;;6.62;62.89
62548;BME280;48602;45.192;5.722;2023-03-05T08:57:39;99216.75;;;6.74;63.13
62548;BME280;48602;45.192;5.722;2023-03-05T09:00:05;99217.44;;;6.83;62.81
62548;BME280;48602;45.192;5.722;2023-03-05T09:02:31;99217.94;;;6.97;62.04
62548;BME280;48602;45.192;5.722;2023-03-05T09:04:57;99220.31;;;7.08;62.32
62548;BME280;48602;45.192;5.722;2023-03-05T09:07:22;99214.03;;;7.15;61.96
62548;BME280;48602;45.192;5.722;2023-03-05T09:09:48;99214.59;;;7.26;61.99
62548;BME280;48602;45.192;5.722;2023-03-05T09:12:13;99213.41;;;7.38;62.11
62548;BME280;48602;45.192;5.722;2023-03-05T09:14:40;99214.94;;;7.48;61.86
62548;BME280;48602;45.192;5.722;2023-03-05T09:17:07;99219.91;;;7.57;62.05
62548;BME280;48602;45.192;5.722;2023-03-05T09:19:44;99220.63;;;7.64;61.61
62548;BME280;48602;45.192;5.722;2023-03-05T09:22:09;99213.47;;;7.70;61.21
62548;BME280;48602;45.192;5.722;2023-03-05T09:24:35;99212.28;;;7.81;61.37
62548;BME280;48602;45.192;5.722;2023-03-05T09:27:00;99217.53;;;7.81;60.78
62548;BME280;48602;45.192;5.722;2023-03-05T09:29:26;99217.53;;;7.81;59.21
62548;BME280;48602;45.192;5.722;2023-03-05T09:31:52;99206.53;;;7.68;59.77
62548;BME280;48602;45.192;5.722;2023-03-05T09:34:18;99203.25;;;7.60;59.67
62548;BME280;48602;45.192;5.722;2023-03-05T09:36:43;99208.53;;;7.58;59.09
62548;BME280;48602;45.192;5.722;2023-03-05T09:39:09;99209.63;;;7.50;59.09
62548;BME280;48602;45.192;5.722;2023-03-05T09:47:06;99186.84;;;7.52;59.44
62548;BME280;48602;45.192;5.722;2023-03-05T09:52:37;99183.56;;;7.44;59.12
62548;BME280;48602;45.192;5.722;2023-03-05T09:55:12;99183.59;;;7.42;58.81
62548;BME280;48602;45.192;5.722;2023-03-05T09:57:41;99169.59;;;7.43;58.72
62548;BME280;48602;45.192;5.722;2023-03-05T10:02:55;99164.59;;;7.34;59.18
62548;BME280;48602;45.192;5.722;2023-03-05T10:08:32;99172.41;;;7.03;59.23
62548;BME280;48602;45.192;5.722;2023-03-05T10:11:05;99169.94;;;6.95;59.81
62548;BME280;48602;45.192;5.722;2023-03-05T10:13:39;99152.59;;;6.90;59.71
62548;BME280;48602;45.192;5.722;2023-03-05T10:19:02;99150.38;;;6.75;59.62
62548;BME280;48602;45.192;5.722;2023-03-05T10:21:42;99143.66;;;6.63;60.10
62548;BME280;48602;45.192;5.722;2023-03-05T10:29:51;99130.28;;;6.38;60.83
62548;BME280;48602;45.192;5.722;2023-03-05T10:46:43;99108.47;;;6.38;61.67
62548;BME280;48602;45.192;5.722;2023-03-05T10:56:42;99101.91;;;6.57;61.62
62548;BME280;48602;45.192;5.722;2023-03-05T10:59:07;99096.53;;;6.63;61.62
62548;BME280;48602;45.192;5.722;2023-03-05T11:01:33;99097.19;;;6.71;61.60
62548;BME280;48602;45.192;5.722;2023-03-05T11:04:04;99091.91;;;6.73;61.64
62548;BME280;48602;45.192;5.722;2023-03-05T11:06:43;99088.38;;;6.74;61.47
62548;BME280;48602;45.192;5.722;2023-03-05T11:09:23;99072.59;;;6.77;61.74
62548;BME280;48602;45.192;5.722;2023-03-05T11:14:35;99063.44;;;6.93;61.48
62548;BME280;48602;45.192;5.722;2023-03-05T11:17:42;99066.69;;;7.03;61.19
62548;BME280;48602;45.192;5.722;2023-03-05T11:25:54;99054.50;;;7.32;60.27
62548;BME280;48602;45.192;5.722;2023-03-05T11:33:23;99030.50;;;7.46;59.79
62548;BME280;48602;45.192;5.722;2023-03-05T11:35:50;99022.50;;;7.51;60.37
62548;BME280;48602;45.192;5.722;2023-03-05T11:38:18;99024.84;;;7.60;59.97
62548;BME280;48602;45.192;5.722;2023-03-05T11:40:45;99027.16;;;7.70;59.63
62548;BME280;48602;45.192;5.722;2023-03-05T11:43:20;99016.56;;;7.74;59.36
62548;BME280;48602;45.192;5.722;2023-03-05T11:45:52;99009.41;;;7.79;59.32
62548;BME280;48602;45.192;5.722;2023-03-05T11:48:23;99010.09;;;7.85;59.15
62548;BME280;48602;45.192;5.722;2023-03-05T11:50:56;99004.66;;;7.90;58.99
62548;BME280;48602;45.192;5.722;2023-03-05T11:53:32;99002.78;;;7.95;58.48
62548;BME280;48602;45.192;5.722;2023-03-05T12:01:27;99000.59;;;8.07;58.00
62548;BME280;48602;45.192;5.722;2023-03-05T12:03:53;98986.50;;;8.12;58.40
62548;BME280;48602;45.192;5.722;2023-03-05T12:09:25;98981.03;;;8.18;57.40
62548;BME280;48602;45.192;5.722;2023-03-05T12:12:03;98973.91;;;8.21;57.76
62548;BME280;48602;45.192;5.722;2023-03-05T12:14:38;98969.22;;;8.31;57.51
62548;BME280;48602;45.192;5.722;2023-03-05T12:17:33;98955.78;;;8.40;57.78
62548;BME280;48602;45.192;5.722;2023-03-05T12:20:11;98962.63;;;8.46;56.68
62548;BME280;48602;45.192;5.722;2023-03-05T12:22:40;98946.84;;;8.46;56.90
62548;BME280;48602;45.192;5.722;2023-03-05T12:25:51;98942.41;;;8.48;56.48
62548;BME280;48602;45.192;5.722;2023-03-05T12:36:33;98913.94;;;8.60;55.97
62548;BME280;48602;45.192;5.722;2023-03-05T12:38:59;98926.13;;;8.63;55.89
62548;BME280;48602;45.192;5.722;2023-03-05T12:46:41;98895.44;;;8.63;56.08
62548;BME280;48602;45.192;5.722;2023-03-05T12:51:52;98880.03;;;8.78;56.00
62548;BME280;48602;45.192;5.722;2023-03-05T12:54:38;98881.59;;;8.83;56.08
62548;BME280;48602;45.192;5.722;2023-03-05T12:57:21;98875.09;;;8.92;56.00
62548;BME280;48602;45.192;5.722;2023-03-05T13:00:03;98874.78;;;9.01;55.76
62548;BME280;48602;45.192;5.722;2023-03-05T13:02:43;98858.81;;;9.05;55.46
62548;BME280;48602;45.192;5.722;2023-03-05T13:05:17;98853.31;;;9.12;55.02
62548;BME280;48602;45.192;5.722;2023-03-05T13:07:44;98847.78;;;9.19;55.42
62548;BME280;48602;45.192;5.722;2023-03-05T13:10:29;98827.06;;;9.33;55.37
62548;BME280;48602;45.192;5.722;2023-03-05T13:12:56;98838.66;;;9.50;54.94
62548;BME280;48602;45.192;5.722;2023-03-05T13:15:24;98839.25;;;9.56;54.53
62548;BME280;48602;45.192;5.722;2023-03-05T13:17:59;98829.97;;;9.48;53.78
62548;BME280;48602;45.192;5.722;2023-03-05T13:23:18;98824.84;;;9.44;54.56
62548;BME280;48602;45.192;5.722;2023-03-05T13:28:24;98811.31;;;9.54;54.21
62548;BME280;48602;45.192;5.722;2023-03-05T13:30:56;98811.97;;;9.59;53.94
62548;BME280;48602;45.192;5.722;2023-03-05T13:33:28;98795.31;;;9.58;54.21
62548;BME280;48602;45.192;5.722;2023-03-05T13:35:54;98805.72;;;9.61;54.01
62548;BME280;48602;45.192;5.722;2023-03-05T13:38:38;98816.06;;;9.66;53.18
62548;BME280;48602;45.192;5.722;2023-03-05T13:41:05;98791.59;;;9.64;53.91
62548;BME280;48602;45.192;5.722;2023-03-05T13:43:31;98779.28;;;9.64;54.24
62548;BME280;48602;45.192;5.722;2023-03-05T13:45:57;98793.97;;;9.70;54.22
62548;BME280;48602;45.192;5.722;2023-03-05T13:48:25;98792.06;;;9.73;53.49
62548;BME280;48602;45.192;5.722;2023-03-05T13:50:55;98808.00;;;9.70;53.91
62548;BME280;48602;45.192;5.722;2023-03-05T13:53:29;98787.84;;;9.69;54.00
62548;BME280;48602;45.192;5.722;2023-03-05T13:56:01;98764.75;;;9.76;54.16
62548;BME280;48602;45.192;5.722;2023-03-05T13:58:53;98777.47;;;9.87;54.07
62548;BME280;48602;45.192;5.722;2023-03-05T14:01:29;98777.31;;;9.90;53.69
62548;BME280;48602;45.192;5.722;2023-03-05T14:04:25;98763.16;;;9.92;53.82
62548;BME280;48602;45.192;5.722;2023-03-05T14:07:04;98754.09;;;9.99;54.08
62548;BME280;48602;45.192;5.722;2023-03-05T14:09:41;98747.84;;;10.02;53.51
62548;BME280;48602;45.192;5.722;2023-03-05T14:17:45;98757.16;;;10.09;52.94
62548;BME280;48602;45.192;5.722;2023-03-05T14:20:25;98762.38;;;10.10;52.68
62548;BME280;48602;45.192;5.722;2023-03-05T14:22:57;98738.00;;;10.05;53.07
62548;BME280;48602;45.192;5.722;2023-03-05T14:27:53;98753.44;;;10.35;52.72
62548;BME280;48602;45.192;5.722;2023-03-05T14:30:20;98726.22;;;10.53;52.18
62548;BME280;48602;45.192;5.722;2023-03-05T14:32:47;98737.84;;;10.68;52.14
62548;BME280;48602;45.192;5.722;2023-03-05T14:35:19;98728.50;;;10.79;52.06
62548;BME280;48602;45.192;5.722;2023-03-05T14:37:47;98731.31;;;10.94;51.90
62548;BME280;48602;45.192;5.722;2023-03-05T14:45:22;98714.94;;;11.06;50.32
62548;BME280;48602;45.192;5.722;2023-03-05T14:47:49;98725.38;;;11.07;50.12
62548;BME280;48602;45.192;5.722;2023-03-05T14:50:17;98730.91;;;11.03;50.24
62548;BME280;48602;45.192;5.722;2023-03-05T14:52:45;98703.09;;;10.96;50.18
62548;BME280;48602;45.192;5.722;2023-03-05T14:55:20;98694.72;;;10.88;50.35
62548;BME280;48602;45.192;5.722;2023-03-05T14:57:47;98709.25;;;10.77;50.23
62548;BME280;48602;45.192;5.722;2023-03-05T15:00:18;98706.69;;;10.57;50.80